Albi, France

3:38 PM CEST on July 30, 2016 (GMT +0200)
station albi | | Change Station

Elev 594 ft 43.93 °N, 2.15 °E | Updated 0 second ago

Clear
Clear
90.5 °F
Feels Like 92 °F
N
4.5
Wind Variable Wind from SW
Gusts 4.5 mph

Today
High -- | Low -- °F
--% Chance of Precip.
Yesterday
High -- | Low -- °F
Precip. -- in
Pressure 29.92 in
Visibility -9999.0 miles
Clouds
Heat Index 92 °F
Dew Point 64 °F
Humidity 42%
Rainfall 0.00 in
Snow Depth Not available.
6:38 AM 9:17 PM
Waning Crescent, 13% visible
METAR LFCK 301330Z AUTO 10006KT 030V160 CAVOK 33/19 Q1013 BECMG SCT035TCU
Pressure 29.92 in
Visibility -9999.0 miles
Clouds
Heat Index 92 °F
Dew Point 64 °F
Humidity 42%
Rainfall 0.00 in
Snow Depth Not available.
6:38 AM 9:17 PM
Waning Crescent, 13% visible
METAR LFCK 301330Z AUTO 10006KT 030V160 CAVOK 33/19 Q1013 BECMG SCT035TCU

10-Day Weather Forecast

×

Almanac

Astronomy

Jul. 30, 2016 Rise Set
Actual Time
Civil Twilight
Nautical Twilight
Astronomical Twilight
Moon
Length of Visible Light
Length of Day
Tomorrow will be .
, % of the Moon is Illuminated

Today's Extremes

Country Highs Country Lows

Community

WunderPhotos

Upload Photos

1,928,556 photos uploaded!

WunderBlog® & News

Nearby

Air Quality

  Air Quality AQ Index Pollutant
Not available.

Snow Depth

Station Depth Elevation

Earthquake Activity

City Distance Mag. Time & Date
Minimum magnitude displayed is 2.5.

Coastal Water Temperatures

Place Temperature

Stations

Nearby Weather Stations

Station Location Temp. Windchill Dew Point Humidity Wind Precip. Elev Updated Type